This is the latest recevied weather packets stored in our database for station/object K7CTM. If no packets are shown the sender has not sent any weather packets the latest 10 day(s).
| Time | Temp. | Humidity | Pressure | Rain* | Wind** | Luminosity | Snow |
|---|---|---|---|---|---|---|---|
| 1777398168 | 10° C | 38% | 1026.2 hPa | 0 mm | - | 542 W/m² | - |
| 1777397865 | 8.89° C | 40% | 1026.4 hPa | 0 mm | - | 267 W/m² | - |
| 1777397560 | 8.89° C | 38% | 1026.3 hPa | 0 mm | - | 459 W/m² | - |
| 1777397258 | 9.44° C | 38% | 1026.3 hPa | 0 mm | - | 294 W/m² | - |
| 1777396955 | 8.89° C | 40% | 1026.3 hPa | 0 mm | - | 320 W/m² | - |
| 1777396651 | 8.89° C | 41% | 1026.1 hPa | 0 mm | - | 278 W/m² | - |
| 1777396348 | 10° C | 41% | 1026.3 hPa | 0 mm | - | 197 W/m² | - |
| 1777396045 | 10° C | 42% | 1026.4 hPa | 0 mm | - | 860 W/m² | - |
| 1777395745 | 9.44° C | 42% | 1026.5 hPa | 0 mm | - | 827 W/m² | - |
| 1777395441 | 8.89° C | 42% | 1026.5 hPa | 0 mm | - | 800 W/m² | - |
| 1777395139 | 8.89° C | 43% | 1026.3 hPa | 0 mm | - | 809 W/m² | - |
| 1777394836 | 8.89° C | 42% | 1026.5 hPa | 0 mm | - | 321 W/m² | - |
| 1777394531 | 8.33° C | 45% | 1026.3 hPa | 0 mm | - | 710 W/m² | - |
| 1777394228 | 8.33° C | 48% | 1026.6 hPa | 0 mm | - | 172 W/m² | - |
| 1777393924 | 8.33° C | 48% | 1026.3 hPa | 0 mm | - | 286 W/m² | - |
| 1777393623 | 7.78° C | 53% | 1026.5 hPa | 0 mm | - | 735 W/m² | - |
| 1777393318 | 7.78° C | 55% | 1026.5 hPa | 0 mm | - | 568 W/m² | - |
| 1777393016 | 6.67° C | 58% | 1026.3 hPa | 0 mm | - | 626 W/m² | - |
| 1777392711 | 6.67° C | 61% | 1026.4 hPa | 0 mm | - | 602 W/m² | - |
| 1777392408 | 6.11° C | 62% | 1026.6 hPa | 0 mm | - | 589 W/m² | - |
| 1777392103 | 5.56° C | 66% | 1026.5 hPa | 0 mm | - | 572 W/m² | - |
| 1777391798 | 5° C | 67% | 1026.4 hPa | 0 mm | - | 557 W/m² | - |
| 1777391494 | 5° C | 67% | 1026.8 hPa | 0 mm | - | 543 W/m² | - |
| 1777391191 | 5.56° C | 66% | 1026.4 hPa | 0 mm | - | 522 W/m² | - |
| 1777390887 | 3.89° C | 70% | 1026.8 hPa | 0 mm | - | 501 W/m² | - |
* Rain latest hour (hover to see other rain measurements)
** Current wind speed in m/s (hover to see current wind gust speed)